createdAt,value
2022-08-03T00:02:25.287Z,10.85
2022-08-03T00:05:26.894Z,6.60
2022-08-03T00:08:28.531Z,6.72
2022-08-03T00:11:30.397Z,6.65
2022-08-03T00:14:31.963Z,5.82
2022-08-03T00:17:53.531Z,7.38
2022-08-03T00:20:55.174Z,9.40
2022-08-03T00:23:56.732Z,5.30
2022-08-03T00:26:58.346Z,6.13
2022-08-03T00:30:00.606Z,8.15
2022-08-03T00:33:02.315Z,8.50
2022-08-03T00:36:04.522Z,3.20
2022-08-03T00:39:06.089Z,5.97
2022-08-03T00:42:07.847Z,4.20
2022-08-03T00:45:09.735Z,8.98
2022-08-03T00:48:29.722Z,5.70
2022-08-03T00:51:34.187Z,4.65
2022-08-03T00:54:37.748Z,6.90
2022-08-03T00:57:39.551Z,6.45
2022-08-03T01:00:41.720Z,5.53
2022-08-03T01:03:43.339Z,5.28
2022-08-03T01:07:11.639Z,7.50
2022-08-03T01:10:47.125Z,10.77
2022-08-03T01:14:01.583Z,7.60
2022-08-03T01:17:19.157Z,7.90
2022-08-03T01:20:24.034Z,6.75
2022-08-03T01:23:47.546Z,6.30
2022-08-03T01:27:15.800Z,7.25
2022-08-03T01:30:17.640Z,8.60
2022-08-03T01:33:24.396Z,14.52
2022-08-03T01:36:32.560Z,7.72
2022-08-03T01:39:37.862Z,9.80
2022-08-03T01:42:41.028Z,11.52
2022-08-03T01:45:44.710Z,10.48
2022-08-03T01:48:48.730Z,9.77
2022-08-03T01:52:03.352Z,12.10
2022-08-03T01:55:08.314Z,8.13
2022-08-03T01:58:12.138Z,9.27
2022-08-03T02:01:15.609Z,8.80
2022-08-03T02:04:19.029Z,10.23
2022-08-03T02:07:21.491Z,8.27
2022-08-03T02:10:35.223Z,8.25
2022-08-03T02:13:39.180Z,9.98
2022-08-03T02:16:40.846Z,9.93
2022-08-03T02:19:46.176Z,11.00
2022-08-03T02:22:48.315Z,8.75
2022-08-03T02:25:56.228Z,9.15
2022-08-03T02:29:05.926Z,8.25
2022-08-03T02:32:12.268Z,6.22
2022-08-03T02:35:17.430Z,12.30
2022-08-03T02:38:23.534Z,10.73
2022-08-03T02:41:30.705Z,8.57
2022-08-03T02:44:33.659Z,8.25
2022-08-03T02:47:53.402Z,9.63
2022-08-03T02:50:58.676Z,7.32
2022-08-03T02:54:03.555Z,6.80
2022-08-03T02:57:08.247Z,6.93
2022-08-03T03:00:10.426Z,10.65
2022-08-03T03:03:13.132Z,8.38
2022-08-03T03:06:17.890Z,9.73
2022-08-03T03:09:21.920Z,6.07
2022-08-03T03:12:24.790Z,9.55
2022-08-03T03:15:27.838Z,6.28
2022-08-03T03:18:32.901Z,12.93
2022-08-03T03:21:36.558Z,8.70
2022-08-03T03:24:39.807Z,8.20
2022-08-03T03:27:41.800Z,10.27
2022-08-03T03:30:52.986Z,10.47
2022-08-03T03:33:59.895Z,7.88
2022-08-03T03:37:02.067Z,11.85
2022-08-03T03:40:04.194Z,9.70
2022-08-03T03:43:10.788Z,8.60
2022-08-03T03:46:13.160Z,9.07
2022-08-03T03:49:14.993Z,8.27
2022-08-03T03:52:19.303Z,10.82
2022-08-03T03:55:21.062Z,8.65
2022-08-03T03:58:22.640Z,12.57
2022-08-03T04:01:27.251Z,18.02
2022-08-03T04:04:47.333Z,14.52
2022-08-03T04:08:21.800Z,14.10
2022-08-03T04:11:31.967Z,14.40
2022-08-03T04:17:36.744Z,20.98
2022-08-03T04:20:40.559Z,17.08
2022-08-03T04:23:46.427Z,16.23
2022-08-03T04:26:52.730Z,13.57
2022-08-03T04:29:57.442Z,14.68
2022-08-03T04:33:01.846Z,11.82
2022-08-03T04:36:07.649Z,17.73
2022-08-03T04:39:14.748Z,16.67
2022-08-03T04:42:21.000Z,14.13
2022-08-03T04:45:24.355Z,18.05
2022-08-03T04:48:26.390Z,16.63
2022-08-03T04:51:28.971Z,19.52
2022-08-03T04:54:31.067Z,15.05
2022-08-03T04:57:32.703Z,15.10
2022-08-03T05:00:34.483Z,16.83
2022-08-03T05:03:36.454Z,15.13
2022-08-03T05:06:39.835Z,14.18
2022-08-03T05:09:52.619Z,16.08
2022-08-03T05:12:54.711Z,17.13
2022-08-03T05:15:56.470Z,15.77
2022-08-03T05:18:58.050Z,11.23
2022-08-03T05:21:59.883Z,12.25
2022-08-03T05:25:02.135Z,16.48
2022-08-03T05:28:03.974Z,10.95
2022-08-03T05:31:05.750Z,18.23
2022-08-03T05:34:07.352Z,15.65
2022-08-03T05:37:09.284Z,9.50
2022-08-03T05:40:11.611Z,12.10
2022-08-03T05:43:13.175Z,9.90
2022-08-03T05:46:14.812Z,7.32
2022-08-03T05:49:16.484Z,16.65
2022-08-03T05:52:18.170Z,11.70
2022-08-03T05:55:20.299Z,10.90
2022-08-03T05:58:21.967Z,9.52
2022-08-03T06:01:23.786Z,9.63
2022-08-03T06:04:25.378Z,14.60
2022-08-03T06:07:27.511Z,11.48
2022-08-03T06:10:36.062Z,9.00
2022-08-03T06:13:39.628Z,11.70
2022-08-03T06:16:41.308Z,10.02
2022-08-03T06:19:42.947Z,15.45
2022-08-03T06:22:50.596Z,9.15
2022-08-03T06:25:53.132Z,8.32
2022-08-03T06:28:55.446Z,14.38
2022-08-03T06:31:57.126Z,11.82
2022-08-03T06:34:58.735Z,11.70
2022-08-03T06:38:00.328Z,10.30
2022-08-03T06:41:01.959Z,8.63
2022-08-03T06:44:04.497Z,10.20
2022-08-03T06:47:06.332Z,12.10
2022-08-03T06:50:17.141Z,10.27
2022-08-03T06:53:21.196Z,11.98
2022-08-03T06:56:23.175Z,6.43
2022-08-03T07:00:06.576Z,8.90
2022-08-03T07:02:46.341Z,12.90
2022-08-03T07:05:50.789Z,11.60
2022-08-03T07:08:55.457Z,10.07
2022-08-03T07:11:59.484Z,8.80
2022-08-03T07:15:03.108Z,12.90
2022-08-03T07:18:05.225Z,9.30
2022-08-03T07:21:09.067Z,11.35
2022-08-03T07:24:10.642Z,10.57
2022-08-03T07:27:12.230Z,10.35
2022-08-03T07:30:14.916Z,7.55
2022-08-03T07:33:16.557Z,5.32
2022-08-03T07:36:18.223Z,8.18
2022-08-03T07:39:20.004Z,5.90
2022-08-03T07:42:23.180Z,7.57
2022-08-03T07:45:26.526Z,8.15
2022-08-03T07:48:28.251Z,8.90
2022-08-03T07:51:29.958Z,7.68
2022-08-03T07:54:32.000Z,9.50
2022-08-03T07:57:34.540Z,8.88
2022-08-03T08:00:36.726Z,10.27
2022-08-03T08:03:52.182Z,7.88
2022-08-03T08:06:54.762Z,7.55
2022-08-03T08:09:56.380Z,8.00
2022-08-03T08:12:58.340Z,8.48
2022-08-03T08:15:59.943Z,9.25
2022-08-03T08:19:02.299Z,6.47
2022-08-03T08:22:03.949Z,6.68
2022-08-03T08:25:07.660Z,6.88
2022-08-03T08:28:22.276Z,5.30
2022-08-03T08:31:30.937Z,7.47
2022-08-03T08:34:32.567Z,10.10
2022-08-03T08:37:34.658Z,9.85
2022-08-03T08:40:36.264Z,7.05
2022-08-03T08:43:38.018Z,6.57
2022-08-03T08:46:39.897Z,7.57
2022-08-03T08:49:53.442Z,8.07
2022-08-03T08:53:04.403Z,6.90
2022-08-03T08:56:10.204Z,9.25
2022-08-03T08:59:12.186Z,5.32
2022-08-03T09:02:13.760Z,7.97
2022-08-03T09:05:24.711Z,13.13
2022-08-03T09:08:33.363Z,13.45
2022-08-03T09:11:51.654Z,5.07
2022-08-03T09:15:16.099Z,11.00
2022-08-03T09:18:32.331Z,15.77
2022-08-03T09:21:34.968Z,6.38
2022-08-03T09:24:41.416Z,5.30
2022-08-03T09:27:46.797Z,8.18
2022-08-03T09:31:00.543Z,8.70
2022-08-03T09:34:04.700Z,11.95
2022-08-03T09:37:15.262Z,6.53
2022-08-03T09:40:35.745Z,5.95
2022-08-03T09:43:47.012Z,9.25
2022-08-03T09:46:53.786Z,4.22
2022-08-03T09:50:01.919Z,2.50
2022-08-03T09:53:04.378Z,4.72
2022-08-03T09:56:36.006Z,4.70
2022-08-03T09:59:32.405Z,8.95
2022-08-03T10:02:35.028Z,8.82
2022-08-03T10:05:38.371Z,11.90
2022-08-03T10:08:40.017Z,7.20
2022-08-03T10:11:42.861Z,6.57
2022-08-03T10:14:47.669Z,13.18
2022-08-03T10:17:49.374Z,14.25
2022-08-03T10:20:59.254Z,6.43
2022-08-03T10:24:07.228Z,9.90
2022-08-03T10:27:12.270Z,10.32
2022-08-03T10:30:15.207Z,9.23
2022-08-03T10:33:50.028Z,8.25
2022-08-03T10:36:49.452Z,5.72
2022-08-03T10:39:55.616Z,10.82
2022-08-03T10:43:06.580Z,11.50
2022-08-03T10:46:45.787Z,12.38
2022-08-03T10:53:07.381Z,9.65
2022-08-03T10:56:53.418Z,16.00
2022-08-03T10:59:57.435Z,5.93
2022-08-03T11:03:11.314Z,6.75
2022-08-03T11:06:25.019Z,5.30
2022-08-03T11:09:42.106Z,7.35
2022-08-03T11:12:45.451Z,7.55
2022-08-03T11:15:51.251Z,11.75
2022-08-03T11:19:08.126Z,9.65
2022-08-03T11:22:10.858Z,7.78
2022-08-03T11:25:53.223Z,8.23
2022-08-03T11:28:41.384Z,8.52
2022-08-03T11:31:50.351Z,6.38
2022-08-03T11:35:23.316Z,3.70
2022-08-03T11:38:25.666Z,5.85
2022-08-03T11:41:44.905Z,5.25
2022-08-03T11:44:47.769Z,5.82
2022-08-03T11:47:54.315Z,3.00
2022-08-03T11:50:57.582Z,7.95
2022-08-03T11:54:04.423Z,4.97
2022-08-03T11:57:06.189Z,10.45
2022-08-03T12:00:32.183Z,6.85
2022-08-03T12:03:35.144Z,6.50
2022-08-03T12:06:55.146Z,7.80
2022-08-03T12:14:26.989Z,4.57
2022-08-03T12:16:34.288Z,10.07
2022-08-03T12:19:43.010Z,8.52
2022-08-03T12:22:44.662Z,10.57
2022-08-03T12:25:47.513Z,7.20
2022-08-03T12:28:51.428Z,4.32
2022-08-03T12:31:53.102Z,8.43
2022-08-03T12:35:00.258Z,5.95
2022-08-03T12:38:03.004Z,5.50
2022-08-03T12:41:15.727Z,6.45
2022-08-03T12:44:17.352Z,12.77
2022-08-03T12:47:19.295Z,13.27
2022-08-03T12:50:35.143Z,7.57
2022-08-03T12:53:37.102Z,4.75
2022-08-03T12:56:57.170Z,5.72
2022-08-03T13:00:21.433Z,5.05
2022-08-03T13:03:43.438Z,6.10
2022-08-03T13:07:03.398Z,5.95
2022-08-03T13:10:08.187Z,5.65
2022-08-03T13:13:10.695Z,8.52
2022-08-03T13:16:17.203Z,6.13
2022-08-03T13:19:20.714Z,7.65
2022-08-03T13:22:24.722Z,11.00
2022-08-03T13:25:26.301Z,5.35
2022-08-03T13:28:27.960Z,9.07
2022-08-03T13:31:29.597Z,7.90
2022-08-03T13:34:31.705Z,5.53
2022-08-03T13:37:33.681Z,6.90
2022-08-03T13:40:38.456Z,5.18
2022-08-03T13:43:43.471Z,11.98
2022-08-03T13:46:45.551Z,8.50
2022-08-03T13:49:56.979Z,7.60
2022-08-03T13:53:02.173Z,3.75
2022-08-03T13:56:04.010Z,3.95
2022-08-03T13:59:06.116Z,4.95
2022-08-03T14:02:07.745Z,5.65
2022-08-03T14:05:09.543Z,6.70
2022-08-03T14:08:12.116Z,8.88
2022-08-03T14:11:14.492Z,8.15
2022-08-03T14:14:16.073Z,10.02
2022-08-03T14:17:18.022Z,6.35
2022-08-03T14:20:37.475Z,5.97
2022-08-03T14:26:43.064Z,6.30
2022-08-03T14:29:44.618Z,5.22
2022-08-03T14:32:46.422Z,5.68
2022-08-03T14:35:48.543Z,5.32
2022-08-03T14:38:50.133Z,3.20
2022-08-03T14:41:51.740Z,4.25
2022-08-03T14:44:57.156Z,3.78
2022-08-03T14:50:33.885Z,7.13
2022-08-03T14:51:24.619Z,3.53
2022-08-03T14:54:26.313Z,3.22
2022-08-03T14:57:28.039Z,2.75
2022-08-03T15:00:29.635Z,6.13
2022-08-03T15:03:31.256Z,6.28
2022-08-03T15:06:32.833Z,7.50
2022-08-03T15:09:34.599Z,3.33
2022-08-03T15:12:36.182Z,4.53
2022-08-03T15:15:37.837Z,6.40
2022-08-03T15:18:39.457Z,7.97
2022-08-03T15:21:46.636Z,7.30
2022-08-03T15:24:49.782Z,12.50
2022-08-03T15:28:02.823Z,2.10
2022-08-03T15:31:06.061Z,9.15
2022-08-03T15:34:07.725Z,4.85
2022-08-03T15:37:24.494Z,4.00
2022-08-03T15:40:26.351Z,4.32
2022-08-03T15:43:27.939Z,6.78
2022-08-03T15:46:30.043Z,4.72
2022-08-03T15:49:31.949Z,2.88
2022-08-03T15:52:35.970Z,4.30
2022-08-03T15:55:37.707Z,1.30
2022-08-03T15:59:11.278Z,2.28
2022-08-03T16:02:01.285Z,6.43
2022-08-03T16:05:03.314Z,3.35
2022-08-03T16:08:07.941Z,8.85
2022-08-03T16:11:12.010Z,5.95
2022-08-03T16:14:32.099Z,2.38
2022-08-03T16:17:35.316Z,6.85
2022-08-03T16:20:36.942Z,8.20
2022-08-03T16:23:39.664Z,2.38
2022-08-03T16:26:45.014Z,7.78
2022-08-03T16:29:46.716Z,4.97
2022-08-03T16:32:48.690Z,2.88
2022-08-03T16:35:50.307Z,5.45
2022-08-03T16:38:51.892Z,6.40
2022-08-03T16:42:01.093Z,4.68
2022-08-03T16:45:05.843Z,7.80
2022-08-03T16:48:08.320Z,8.75
2022-08-03T16:51:10.682Z,4.30
2022-08-03T16:54:14.107Z,6.65
2022-08-03T16:57:16.038Z,4.07
2022-08-03T17:00:34.283Z,2.67
2022-08-03T17:03:42.720Z,5.97
2022-08-03T17:07:04.890Z,11.45
2022-08-03T17:10:09.173Z,5.97
2022-08-03T17:13:10.825Z,4.70
2022-08-03T17:16:15.358Z,7.22
2022-08-03T17:19:21.262Z,4.35
2022-08-03T17:22:35.213Z,5.95
2022-08-03T17:25:51.217Z,5.25
2022-08-03T17:29:12.565Z,6.95
2022-08-03T17:32:21.211Z,4.82
2022-08-03T17:35:23.629Z,5.57
2022-08-03T17:38:26.071Z,2.45
2022-08-03T17:41:33.870Z,5.75
2022-08-03T17:44:46.209Z,4.00
2022-08-03T17:47:57.312Z,5.63
2022-08-03T17:51:04.698Z,4.97
2022-08-03T17:54:18.477Z,5.50
2022-08-03T17:58:02.230Z,7.70
2022-08-03T18:01:59.822Z,4.40
2022-08-03T18:05:02.084Z,6.38
2022-08-03T18:08:09.478Z,4.57
2022-08-03T18:11:16.755Z,3.88
2022-08-03T18:14:35.201Z,5.25
2022-08-03T18:17:55.077Z,6.05
2022-08-03T18:21:06.554Z,3.75
2022-08-03T18:24:11.270Z,7.45
2022-08-03T18:27:15.836Z,6.90
2022-08-03T18:30:17.494Z,5.20
2022-08-03T18:34:16.367Z,5.28
2022-08-03T18:36:47.153Z,9.00
2022-08-03T18:48:15.920Z,6.50
2022-08-03T18:51:24.253Z,7.43
2022-08-03T18:55:02.278Z,8.07
2022-08-03T18:58:18.037Z,6.88
2022-08-03T19:01:59.904Z,13.38
2022-08-03T19:05:09.006Z,8.85
2022-08-03T19:08:43.959Z,11.88
2022-08-03T19:12:12.503Z,8.48
2022-08-03T19:15:15.805Z,13.65
2022-08-03T19:18:18.063Z,16.00
2022-08-03T19:21:19.917Z,15.93
2022-08-03T19:24:26.207Z,14.25
2022-08-03T19:27:30.703Z,15.88
2022-08-03T19:30:53.277Z,14.02
2022-08-03T19:33:58.321Z,16.80
2022-08-03T19:37:00.772Z,14.73
2022-08-03T19:40:05.899Z,15.38
2022-08-03T19:43:33.006Z,21.70
2022-08-03T19:47:01.037Z,13.40
2022-08-03T19:50:13.796Z,20.85
2022-08-03T19:53:16.804Z,17.95
2022-08-03T19:56:23.626Z,18.00
2022-08-03T19:59:26.938Z,15.23
2022-08-03T20:02:29.668Z,14.35
2022-08-03T20:05:45.119Z,15.00
2022-08-03T20:08:54.024Z,12.02
2022-08-03T20:11:57.219Z,13.52
2022-08-03T20:14:59.827Z,12.88
2022-08-03T20:18:02.584Z,17.50
2022-08-03T20:21:14.914Z,9.93
2022-08-03T20:24:23.487Z,11.95
2022-08-03T20:27:30.317Z,15.33
2022-08-03T20:30:32.164Z,10.02
2022-08-03T20:33:46.238Z,10.45
2022-08-03T20:36:50.642Z,14.60
2022-08-03T20:39:54.391Z,12.70
2022-08-03T20:42:56.233Z,16.33
2022-08-03T20:46:00.915Z,17.83
2022-08-03T20:49:23.201Z,14.27
2022-08-03T20:52:26.200Z,16.77
2022-08-03T20:55:48.274Z,18.38
2022-08-03T20:58:51.374Z,12.98
2022-08-03T21:01:53.620Z,15.02
2022-08-03T21:04:56.611Z,18.73
2022-08-03T21:08:06.914Z,16.15
2022-08-03T21:11:14.945Z,13.65
2022-08-03T21:14:24.951Z,15.68
2022-08-03T21:17:40.386Z,14.63
2022-08-03T21:20:44.418Z,11.25
2022-08-03T21:23:49.912Z,16.27
2022-08-03T21:26:54.572Z,12.80
2022-08-03T21:29:58.670Z,17.23
2022-08-03T21:33:00.505Z,19.10
2022-08-03T21:36:02.819Z,17.77
2022-08-03T21:39:08.655Z,9.52
2022-08-03T21:42:10.571Z,13.77
2022-08-03T21:45:17.110Z,15.23
2022-08-03T21:48:21.404Z,20.42
2022-08-03T21:51:29.450Z,12.82
2022-08-03T21:54:39.342Z,15.10
2022-08-03T21:57:43.933Z,11.98
2022-08-03T22:00:46.207Z,8.25
2022-08-03T22:03:53.147Z,13.07
2022-08-03T22:06:56.253Z,15.60
2022-08-03T22:09:59.691Z,11.43
2022-08-03T22:13:01.367Z,11.23
2022-08-03T22:16:03.316Z,17.42
2022-08-03T22:19:04.930Z,18.13
2022-08-03T22:22:13.620Z,13.63
2022-08-03T22:25:16.329Z,10.40
2022-08-03T22:28:19.506Z,19.08
2022-08-03T22:31:30.768Z,9.70
2022-08-03T22:34:45.800Z,11.43
2022-08-03T22:37:51.622Z,16.25
2022-08-03T22:40:56.146Z,13.32
2022-08-03T22:43:58.816Z,12.98
2022-08-03T22:47:06.673Z,13.90
2022-08-03T22:50:31.878Z,15.95
2022-08-03T22:53:33.457Z,14.95
2022-08-03T22:56:35.083Z,12.68
2022-08-03T22:59:42.007Z,9.77
2022-08-03T23:02:46.793Z,13.77
2022-08-03T23:06:00.476Z,8.85
2022-08-03T23:09:10.280Z,12.57
2022-08-03T23:12:17.058Z,17.38
2022-08-03T23:15:18.807Z,16.95
2022-08-03T23:18:22.019Z,13.50
2022-08-03T23:21:53.782Z,14.50
2022-08-03T23:24:49.760Z,16.38
2022-08-03T23:28:05.095Z,14.63
2022-08-03T23:31:08.367Z,14.82
2022-08-03T23:34:32.189Z,15.32
2022-08-03T23:38:03.672Z,15.80
2022-08-03T23:41:01.944Z,16.05
2022-08-03T23:44:04.382Z,13.07
2022-08-03T23:47:05.992Z,18.67
2022-08-03T23:50:07.959Z,13.75
2022-08-03T23:53:22.343Z,16.00
2022-08-03T23:56:33.224Z,15.65
